Time;durP1;ratioP1;P1;durP2;ratioP2;P2;SDS_P1;SDS_P2;PMS_P1;PMS_P2;Temp;Humidity;BMP_temperature;BMP_pressure;BME280_temperature;BME280_humidity;BME280_pressure;Samples;Min_cycle;Max_cycle;Signal;HPM_P1;HPM_P2
2021/04/24 00:08:57;;;;;;;14.40;7.00;;;;;;;0.82;69.18;100094.45;484885;1171;115578;-60
2021/04/24 00:19:01;;;;;;;13.57;5.97;;;;;;;0.68;69.14;100087.73;484247;1171;116355;-59
2021/04/24 00:29:06;;;;;;;10.77;6.97;;;;;;;0.61;69.25;100090.44;484899;1171;115806;-60
2021/04/24 00:39:10;;;;;;;13.33;6.20;;;;;;;0.44;69.62;100091.56;484875;1171;115777;-60
2021/04/24 00:49:16;;;;;;;11.50;7.27;;;;;;;0.22;69.57;100085.81;483697;1171;116848;-60
2021/04/24 00:59:20;;;;;;;11.53;6.93;;;;;;;-0.03;70.34;100107.66;476190;1171;116350;-59
2021/04/24 01:09:23;;;;;;;13.57;8.70;;;;;;;-0.21;70.75;100105.28;482215;1171;116335;-60
2021/04/24 01:19:27;;;;;;;15.85;8.40;;;;;;;-0.26;71.40;100110.50;484334;1170;118023;-61
2021/04/24 01:29:31;;;;;;;14.90;8.50;;;;;;;-0.26;71.41;100115.66;485009;1171;116454;-60
2021/04/24 01:39:35;;;;;;;20.65;10.85;;;;;;;-0.36;72.05;100119.20;482291;1168;116968;-60
2021/04/24 01:49:40;;;;;;;21.43;11.43;;;;;;;-0.45;72.35;100123.61;469011;1171;116932;-60
2021/04/24 01:59:43;;;;;;;15.03;10.60;;;;;;;-0.53;72.26;100130.56;471753;1171;116106;-60
2021/04/24 02:09:47;;;;;;;17.13;9.07;;;;;;;-0.53;72.29;100116.80;478247;1171;116488;-60
2021/04/24 02:19:52;;;;;;;16.80;10.45;;;;;;;-0.61;71.91;100086.79;484156;1171;116289;-60
2021/04/24 02:29:56;;;;;;;17.85;10.50;;;;;;;-0.93;71.98;100080.20;481048;1171;117677;-60
2021/04/24 02:39:59;;;;;;;20.57;11.13;;;;;;;-1.13;72.26;100078.64;484308;1173;116876;-59
2021/04/24 02:50:06;;;;;;;21.05;12.20;;;;;;;-1.04;72.79;100072.58;484926;1170;116637;-58
2021/04/24 03:00:12;;;;;;;26.13;13.37;;;;;;;-1.02;72.69;100067.39;476347;1171;115787;-59
2021/04/24 03:10:16;;;;;;;17.95;10.50;;;;;;;-0.81;72.43;100076.64;484300;1171;117055;-59
2021/04/24 03:20:22;;;;;;;18.10;10.50;;;;;;;-0.70;72.14;100073.98;484961;1171;116892;-59
2021/04/24 03:30:28;;;;;;;20.65;10.70;;;;;;;-0.53;71.75;100075.52;480047;1171;117726;-59
2021/04/24 03:40:31;;;;;;;16.95;10.80;;;;;;;-0.19;71.72;100076.02;484298;1171;116332;-59
2021/04/24 03:50:35;;;;;;;14.67;8.87;;;;;;;0.12;71.46;100091.13;481686;1170;116400;-60
2021/04/24 04:00:39;;;;;;;14.93;9.10;;;;;;;0.31;70.82;100084.86;484916;1170;116369;-61
2021/04/24 04:10:44;;;;;;;18.20;10.77;;;;;;;0.46;70.25;100094.97;484333;1171;116438;-60
2021/04/24 04:20:50;;;;;;;22.75;11.90;;;;;;;0.70;70.48;100095.48;483233;1171;117075;-60
2021/04/24 04:30:58;;;;;;;19.40;11.30;;;;;;;0.88;69.99;100102.09;482291;1171;117085;-58
2021/04/24 04:41:01;;;;;;;18.83;10.10;;;;;;;1.04;69.78;100105.30;470610;1170;115985;-59
2021/04/24 04:51:06;;;;;;;12.55;7.25;;;;;;;1.22;68.96;100117.06;484999;1171;117044;-60
2021/04/24 05:01:09;;;;;;;8.87;5.10;;;;;;;1.61;68.00;100115.52;484275;1171;115644;-60
2021/04/24 05:11:13;;;;;;;11.23;5.33;;;;;;;2.02;66.59;100115.59;481605;1171;116542;-60
2021/04/24 05:21:17;;;;;;;7.37;3.33;;;;;;;2.26;66.61;100122.02;484918;1171;116134;-60
2021/04/24 05:31:20;;;;;;;4.90;2.50;;;;;;;2.46;67.46;100124.17;484211;1171;116176;-60
2021/04/24 05:41:24;;;;;;;6.03;2.70;;;;;;;2.70;67.28;100131.45;484866;1171;115971;-58
2021/04/24 05:51:28;;;;;;;8.10;2.87;;;;;;;2.90;66.86;100125.79;484889;1171;115713;-58
2021/04/24 06:01:32;;;;;;;11.57;3.43;;;;;;;3.46;66.27;100120.09;481301;1171;116310;-60
2021/04/24 06:11:36;;;;;;;4.48;3.45;;;;;;;3.82;65.76;100136.48;469963;1171;115955;-60
2021/04/24 06:21:40;;;;;;;5.03;3.20;;;;;;;3.88;65.62;100142.36;469284;1171;116780;-60
2021/04/24 06:31:45;;;;;;;6.37;3.20;;;;;;;4.20;65.79;100153.57;467843;1171;118227;-58
2021/04/24 06:41:49;;;;;;;5.65;4.05;;;;;;;4.18;65.93;100128.53;484923;1171;117284;-59
2021/04/24 06:51:53;;;;;;;6.73;3.47;;;;;;;4.89;64.92;100139.40;484824;1170;116462;-61
2021/04/24 07:01:56;;;;;;;7.40;4.28;;;;;;;6.98;61.84;100132.88;484115;1170;116167;-59
2021/04/24 07:12:00;;;;;;;5.87;3.50;;;;;;;8.94;59.49;100118.20;484965;1171;116878;-59
2021/04/24 07:22:04;;;;;;;9.20;3.50;;;;;;;12.12;57.76;100110.46;484257;1171;117007;-61
2021/04/24 07:32:08;;;;;;;8.40;4.65;;;;;;;16.60;50.57;100094.61;467273;1167;20002573;-60
2021/04/24 07:42:13;;;;;;;8.17;6.20;;;;;;;18.95;45.48;100087.88;469085;1171;116361;-60
2021/04/24 07:52:19;;;;;;;6.75;4.55;;;;;;;21.24;41.12;100082.98;470253;1170;116845;-59
2021/04/24 08:02:22;;;;;;;4.63;3.30;;;;;;;23.22;37.15;100078.44;481852;1169;116700;-61
2021/04/24 08:12:26;;;;;;;5.15;4.10;;;;;;;24.19;37.15;100060.59;484171;1170;116581;-61
2021/04/24 08:22:30;;;;;;;6.75;4.35;;;;;;;22.80;32.07;100049.00;475910;1171;116763;-59
2021/04/24 08:32:34;;;;;;;5.90;4.23;;;;;;;19.11;33.15;100047.42;471185;1171;116432;-59
2021/04/24 08:42:38;;;;;;;7.27;3.47;;;;;;;16.46;34.34;100060.44;476736;1171;10001647;-59
2021/04/24 08:52:42;;;;;;;8.30;4.75;;;;;;;14.80;36.02;100060.83;484347;1171;117332;-60
2021/04/24 09:02:47;;;;;;;5.70;4.70;;;;;;;14.74;36.45;100043.63;470278;1171;116659;-60
2021/04/24 09:12:51;;;;;;;7.70;5.50;;;;;;;13.93;37.17;100043.25;470071;1171;117259;-58
2021/04/24 09:22:57;;;;;;;5.30;3.90;;;;;;;14.22;37.74;100038.52;474205;1171;116464;-60
2021/04/24 09:33:08;;;;;;;8.43;4.17;;;;;;;13.07;37.99;100037.68;485014;1171;116153;-60
2021/04/24 09:43:11;;;;;;;6.97;3.87;;;;;;;13.78;37.87;100019.64;470839;1171;116199;-59
2021/04/24 09:53:17;;;;;;;10.45;4.75;;;;;;;14.12;37.76;100011.95;483806;1171;116511;-58
2021/04/24 10:03:37;;;;;;;5.57;4.30;;;;;;;13.00;37.29;100013.53;484914;1170;116843;-59
2021/04/24 10:13:41;;;;;;;6.90;3.85;;;;;;;12.00;38.96;100009.38;475324;1171;116415;-59
2021/04/24 10:23:45;;;;;;;5.93;3.70;;;;;;;11.77;39.37;100016.94;471987;1171;116303;-61
2021/04/24 10:33:50;;;;;;;6.23;3.60;;;;;;;11.14;41.56;100026.89;478168;1170;116417;-60
2021/04/24 10:43:59;;;;;;;6.13;4.47;;;;;;;11.26;43.31;100016.58;484192;1171;115892;-59
2021/04/24 10:54:11;;;;;;;;;;;;;;;11.75;43.00;100003.03;484906;1171;116961;-60
2021/04/24 11:04:39;;;;;;;5.47;3.30;;;;;;;12.02;42.47;99991.73;484586;1171;103356;-60
2021/04/24 11:14:43;;;;;;;8.67;4.00;;;;;;;12.05;40.65;99988.89;484901;1170;116595;-62
2021/04/24 11:24:47;;;;;;;7.50;3.70;;;;;;;11.80;40.77;99989.59;484969;1171;117017;-61
2021/04/24 11:34:51;;;;;;;4.90;2.27;;;;;;;11.80;40.23;100008.02;482494;1171;116170;-62
2021/04/24 11:44:55;;;;;;;3.50;2.43;;;;;;;11.57;39.85;100001.53;484867;1171;117203;-60
2021/04/24 11:54:59;;;;;;;7.57;3.90;;;;;;;10.72;42.85;100046.84;484113;1171;116381;-57
2021/04/24 12:05:09;;;;;;;3.00;2.30;;;;;;;9.72;44.35;100051.39;484932;1171;115597;-59
2021/04/24 12:15:15;;;;;;;3.95;2.85;;;;;;;9.76;45.49;100038.04;484878;1171;116491;-64
2021/04/24 12:25:20;;;;;;;4.38;3.25;;;;;;;9.92;44.41;100031.95;484216;1171;115952;-66
2021/04/24 12:35:27;;;;;;;4.63;3.27;;;;;;;10.25;43.39;100033.66;473521;1170;116960;-60
2021/04/24 12:45:32;;;;;;;3.07;2.57;;;;;;;10.41;42.78;100022.29;475223;1171;116145;-60
2021/04/24 12:55:37;;;;;;;8.20;3.50;;;;;;;10.24;43.86;100008.34;481023;1171;116373;-60
2021/04/24 13:05:41;;;;;;;5.23;2.87;;;;;;;10.54;43.71;99997.05;470456;1170;116574;-61
2021/04/24 13:15:46;;;;;;;6.50;3.47;;;;;;;11.07;43.45;99994.84;454867;1167;20001863;-60
2021/04/24 13:25:50;;;;;;;4.13;2.83;;;;;;;11.19;42.29;99977.50;469716;1171;117432;-61
2021/04/24 13:35:56;;;;;;;5.47;3.10;;;;;;;11.55;41.39;99970.09;470465;1171;116039;-61
2021/04/24 13:46:16;;;;;;;2.40;1.85;;;;;;;11.21;40.33;99961.65;469942;1171;115583;-62
2021/04/24 13:56:20;;;;;;;3.40;2.10;;;;;;;11.05;40.01;99959.93;462016;1170;10000911;-62
2021/04/24 14:06:31;;;;;;;4.95;2.35;;;;;;;10.86;39.92;99962.81;473536;1173;10006904;-61
2021/04/24 14:16:36;;;;;;;5.00;2.87;;;;;;;11.10;39.75;99949.14;470040;1171;116576;-61
2021/04/24 14:26:40;;;;;;;2.55;2.35;;;;;;;10.72;39.30;99933.91;469741;1171;116036;-61
2021/04/24 14:36:45;;;;;;;2.03;1.83;;;;;;;10.84;39.49;99934.94;470957;1171;115830;-60
2021/04/24 14:46:49;;;;;;;4.03;2.87;;;;;;;11.04;39.21;99933.77;469846;1171;118336;-61
2021/04/24 14:56:53;;;;;;;6.75;3.00;;;;;;;10.74;39.72;99926.77;469638;1170;116143;-59
2021/04/24 15:06:57;;;;;;;7.55;3.15;;;;;;;10.21;40.97;99943.75;470201;1169;118758;-60
2021/04/24 15:17:01;;;;;;;5.23;2.93;;;;;;;9.99;41.38;99940.65;469983;1171;115817;-61
2021/04/24 15:27:06;;;;;;;4.85;3.55;;;;;;;10.07;41.62;99934.03;473967;1171;116000;-61
2021/04/24 15:37:10;;;;;;;6.85;3.65;;;;;;;10.18;41.47;99935.20;471705;1170;115863;-61
2021/04/24 15:47:14;;;;;;;4.67;3.30;;;;;;;9.89;42.38;99935.08;471383;1170;116601;-61
2021/04/24 15:57:19;;;;;;;6.70;3.90;;;;;;;9.85;42.85;99930.92;470662;1171;116332;-60
2021/04/24 16:07:23;;;;;;;6.70;3.60;;;;;;;9.67;43.52;99937.09;471441;1171;115838;-58
2021/04/24 16:17:27;;;;;;;8.53;4.90;;;;;;;9.02;44.31;99922.22;473229;1171;115410;-65
2021/04/24 16:27:36;;;;;;;4.87;3.30;;;;;;;8.76;44.73;99924.39;470176;1169;116020;-63
2021/04/24 16:37:40;;;;;;;8.70;4.30;;;;;;;8.57;45.37;99919.25;471924;1171;115407;-61
2021/04/24 16:47:45;;;;;;;6.20;4.37;;;;;;;8.46;45.73;99918.91;469991;1170;116055;-61
2021/04/24 16:57:49;;;;;;;4.80;3.45;;;;;;;8.26;46.06;99920.77;470348;1172;115550;-61
2021/04/24 17:07:53;;;;;;;8.70;3.95;;;;;;;8.03;46.68;99914.89;469970;1171;115782;-61
2021/04/24 17:17:58;;;;;;;5.23;4.50;;;;;;;7.93;47.24;99916.25;472613;1171;115689;-61
2021/04/24 17:28:02;;;;;;;11.10;4.05;;;;;;;7.77;47.47;99908.28;480692;1171;115772;-60
2021/04/24 17:38:08;;;;;;;8.35;4.40;;;;;;;7.62;47.86;99921.16;470411;1171;115803;-61
2021/04/24 17:48:13;;;;;;;8.40;5.10;;;;;;;7.42;48.73;99919.45;481072;1171;115946;-59
2021/04/24 17:58:17;;;;;;;8.80;5.20;;;;;;;7.32;49.29;99928.62;471980;1169;118075;-59
2021/04/24 18:08:21;;;;;;;10.30;5.80;;;;;;;7.15;49.95;99922.40;470218;1171;117065;-61
2021/04/24 18:18:25;;;;;;;11.13;5.40;;;;;;;7.04;50.08;99929.86;469741;1171;116461;-59
2021/04/24 18:28:29;;;;;;;13.95;6.80;;;;;;;6.93;51.33;99940.78;470447;1171;115375;-60
2021/04/24 18:38:32;;;;;;;13.00;6.60;;;;;;;6.81;51.92;99931.70;469277;1171;115645;-60
2021/04/24 18:48:36;;;;;;;15.20;9.20;;;;;;;6.67;51.58;99932.28;470317;1171;115730;-59
2021/04/24 18:58:40;;;;;;;27.50;11.97;;;;;;;6.45;52.76;99934.05;469874;1171;115728;-59
2021/04/24 19:08:44;;;;;;;23.30;13.05;;;;;;;6.14;53.00;99937.06;469123;1171;115979;-61
2021/04/24 19:18:48;;;;;;;30.75;16.93;;;;;;;5.87;53.83;99929.38;470452;1171;116158;-60
2021/04/24 19:28:56;;;;;;;17.90;10.50;;;;;;;5.61;54.96;99941.66;470044;1171;116313;-60
2021/04/24 19:38:59;;;;;;;;;;;;;;;5.26;55.57;99936.00;469924;1171;115884;-60
2021/04/24 19:49:04;;;;;;;21.15;9.55;;;;;;;4.88;55.43;99929.52;470727;1171;102083;-59
2021/04/24 19:59:08;;;;;;;14.83;8.43;;;;;;;4.57;56.84;99933.16;470848;1170;115456;-59
2021/04/24 20:09:13;;;;;;;15.40;9.53;;;;;;;4.28;57.05;99928.93;469789;1171;115452;-60
2021/04/24 20:19:17;;;;;;;18.80;10.20;;;;;;;4.05;57.79;99930.52;470449;1171;115903;-60
2021/04/24 20:29:21;;;;;;;21.10;11.13;;;;;;;3.91;58.60;99917.95;470590;1171;115590;-60
2021/04/24 20:39:25;;;;;;;17.80;11.47;;;;;;;3.74;59.11;99919.34;469652;1171;115582;-60
2021/04/24 20:49:29;;;;;;;20.80;11.00;;;;;;;3.69;59.71;99922.97;470754;1170;115906;-61
2021/04/24 20:59:33;;;;;;;19.10;10.80;;;;;;;3.77;60.02;99916.63;469747;1171;115765;-61
2021/04/24 21:09:37;;;;;;;17.27;9.07;;;;;;;3.96;60.37;99916.08;470531;1171;116462;-60
2021/04/24 21:19:41;;;;;;;17.25;8.80;;;;;;;3.92;60.35;99915.31;470383;1170;116334;-60
2021/04/24 21:29:45;;;;;;;12.77;7.97;;;;;;;3.79;60.56;99914.00;469967;1171;116494;-59
2021/04/24 21:39:49;;;;;;;13.50;7.23;;;;;;;3.66;60.87;99916.11;470452;1171;116719;-59
2021/04/24 21:49:52;;;;;;;11.07;7.97;;;;;;;3.72;60.65;99920.27;470548;1171;115993;-60
2021/04/24 21:59:56;;;;;;;12.03;8.10;;;;;;;3.74;60.15;99929.73;469361;1171;116409;-60
2021/04/24 22:09:59;;;;;;;12.83;8.17;;;;;;;3.61;59.99;99928.40;470172;1173;115355;-60
2021/04/24 22:20:04;;;;;;;14.23;7.77;;;;;;;3.46;60.13;99930.56;470138;1171;116006;-60
2021/04/24 22:30:11;;;;;;;13.10;8.73;;;;;;;3.33;60.25;99930.05;470069;1170;116149;-60
2021/04/24 22:40:17;;;;;;;16.40;8.07;;;;;;;3.31;60.00;99916.28;470619;1170;115347;-60
2021/04/24 22:50:23;;;;;;;16.77;8.53;;;;;;;3.39;59.63;99929.03;470628;1170;115559;-59
2021/04/24 23:00:30;;;;;;;13.60;7.40;;;;;;;3.58;58.59;99929.34;469950;1171;116713;-59
2021/04/24 23:10:35;;;;;;;10.63;6.13;;;;;;;3.69;57.79;99938.55;470203;1172;115176;-60
2021/04/24 23:20:38;;;;;;;12.57;6.20;;;;;;;3.76;56.59;99932.29;469847;1172;116242;-59
2021/04/24 23:30:42;;;;;;;11.90;6.63;;;;;;;3.79;55.62;99924.39;454425;1171;20002953;-59
2021/04/24 23:40:46;;;;;;;11.70;6.70;;;;;;;3.81;55.27;99919.13;470281;1170;116546;-59
2021/04/24 23:50:50;;;;;;;13.77;7.40;;;;;;;3.79;54.55;99906.21;469556;1170;116615;-59
